Time;durP1;ratioP1;P1;durP2;ratioP2;P2;SDS_P1;SDS_P2;PMS_P1;PMS_P2;Temp;Humidity;BMP_temperature;BMP_pressure;BME280_temperature;BME280_humidity;BME280_pressure;Samples;Min_cycle;Max_cycle;Signal;HPM_P1;HPM_P2
2021/10/01 00:01:21;;;;;;;5.70;1.70;;;12.50;99.90;;;;;;5048491;28;20029;-73
2021/10/01 00:03:47;;;;;;;7.43;1.85;;;12.50;99.90;;;;;;5036060;28;20237;-73
2021/10/01 00:06:12;;;;;;;5.13;2.08;;;12.50;99.90;;;;;;5052579;28;20036;-73
2021/10/01 00:08:38;;;;;;;6.40;1.80;;;12.50;99.90;;;;;;5051773;28;20039;-73
2021/10/01 00:11:04;;;;;;;6.07;1.98;;;12.50;99.90;;;;;;5035059;28;20051;-73
2021/10/01 00:13:29;;;;;;;6.50;1.50;;;12.60;99.90;;;;;;5051954;28;20090;-73
2021/10/01 00:15:55;;;;;;;4.00;1.50;;;12.50;99.90;;;;;;5052178;28;20032;-73
2021/10/01 00:18:21;;;;;;;6.65;1.95;;;12.50;99.90;;;;;;5051344;28;20040;-73
2021/10/01 00:20:47;;;;;;;5.50;1.77;;;12.50;99.90;;;;;;5053532;28;20050;-73
2021/10/01 00:23:13;;;;;;;5.63;1.75;;;12.40;99.90;;;;;;5052063;28;20036;-73
2021/10/01 00:25:39;;;;;;;8.23;1.80;;;12.50;99.90;;;;;;5036551;28;20044;-73
2021/10/01 00:28:04;;;;;;;4.97;1.38;;;12.50;99.90;;;;;;5070456;28;20040;-73
2021/10/01 00:30:30;;;;;;;4.35;1.30;;;12.50;99.90;;;;;;5052795;28;20500;-73
2021/10/01 00:32:55;;;;;;;4.85;1.73;;;12.50;99.90;;;;;;5048921;28;20094;-73
2021/10/01 00:35:21;;;;;;;3.58;1.35;;;12.50;99.90;;;;;;5052826;28;20048;-73
2021/10/01 00:37:47;;;;;;;4.55;1.38;;;12.50;99.90;;;;;;5051893;28;20094;-73
2021/10/01 00:40:13;;;;;;;4.65;1.35;;;12.50;99.90;;;;;;5069503;28;20036;-73
2021/10/01 00:42:40;;;;;;;8.55;1.55;;;12.40;99.90;;;;;;5052665;28;20068;-73
2021/10/01 00:45:06;;;;;;;3.10;1.27;;;12.40;99.90;;;;;;5051809;28;20036;-73
2021/10/01 00:47:32;;;;;;;5.70;1.20;;;12.50;99.90;;;;;;5052621;28;20040;-73
2021/10/01 00:49:57;;;;;;;5.80;1.65;;;12.50;99.90;;;;;;5049201;28;20041;-73
2021/10/01 00:52:23;;;;;;;3.95;1.75;;;12.50;99.90;;;;;;5032402;28;20135;-73
2021/10/01 00:54:49;;;;;;;5.63;1.70;;;12.50;99.90;;;;;;5052987;28;20055;-72
2021/10/01 00:57:15;;;;;;;3.70;1.52;;;12.50;99.90;;;;;;5051705;28;20098;-73
2021/10/01 00:59:41;;;;;;;4.15;1.58;;;12.40;99.90;;;;;;5052445;28;20040;-73
2021/10/01 01:02:07;;;;;;;5.50;2.03;;;12.40;99.90;;;;;;5051849;28;20360;-72
2021/10/01 01:04:33;;;;;;;3.80;1.55;;;12.40;99.90;;;;;;5052439;28;20101;-73
2021/10/01 01:07:23;;;;;;;6.80;1.80;;;12.40;99.90;;;;;;5051510;28;20041;-73
2021/10/01 01:09:52;;;;;;;4.35;1.42;;;12.40;99.90;;;;;;5036951;28;20032;-73
2021/10/01 01:12:21;;;;;;;5.82;2.03;;;12.40;99.90;;;;;;5050509;28;20405;-73
2021/10/01 01:14:56;;;;;;;5.45;1.63;;;12.30;99.90;;;;;;5049047;28;20091;-73
2021/10/01 01:17:59;;;;;;;6.25;1.58;;;12.30;99.90;;;;;;5051486;28;20084;-73
2021/10/01 01:20:42;;;;;;;10.70;1.55;;;12.40;99.90;;;;;;5051708;28;20127;-73
2021/10/01 01:23:22;;;;;;;8.13;1.40;;;12.30;99.90;;;;;;5042732;28;20509;-73
2021/10/01 01:25:54;;;;;;;2.55;1.88;;;12.30;99.90;;;;;;5036314;28;20060;-73
2021/10/01 01:28:49;;;;;;;6.28;1.63;;;12.30;99.90;;;;;;5038929;28;20040;-73
2021/10/01 01:31:26;;;;;;;5.68;1.70;;;12.30;99.90;;;;;;5056637;28;20465;-73
2021/10/01 01:33:54;;;;;;;5.32;1.20;;;12.20;99.90;;;;;;5072955;28;20049;-73
2021/10/01 01:36:20;;;;;;;6.68;1.40;;;12.30;99.90;;;;;;5055460;28;20048;-73
2021/10/01 01:38:51;;;;;;;3.58;1.52;;;12.30;99.90;;;;;;5073307;28;20040;-73
2021/10/01 01:41:18;;;;;;;4.55;1.65;;;12.30;99.90;;;;;;5055543;28;20101;-73
2021/10/01 01:43:45;;;;;;;5.32;1.80;;;12.30;99.90;;;;;;5053413;28;20143;-73
2021/10/01 01:46:12;;;;;;;2.30;1.40;;;12.30;99.90;;;;;;5038646;28;20119;-73
2021/10/01 01:48:39;;;;;;;5.60;1.65;;;12.30;99.90;;;;;;5055466;28;20040;-73
2021/10/01 01:51:05;;;;;;;4.28;1.60;;;12.30;99.90;;;;;;5053979;28;20045;-73
2021/10/01 01:53:32;;;;;;;5.70;1.52;;;12.30;99.90;;;;;;5055989;28;20048;-73
2021/10/01 01:55:59;;;;;;;4.13;1.73;;;12.30;99.90;;;;;;5073173;28;20041;-73
2021/10/01 01:58:26;;;;;;;3.15;1.20;;;12.20;99.90;;;;;;5056000;28;20040;-74
2021/10/01 02:00:53;;;;;;;4.72;1.38;;;12.30;99.90;;;;;;5054806;28;20041;-73
2021/10/01 02:03:20;;;;;;;5.07;1.90;;;12.30;99.90;;;;;;5036095;28;20474;-74
2021/10/01 02:05:47;;;;;;;4.55;1.63;;;12.30;99.90;;;;;;5055317;28;20533;-73
2021/10/01 02:08:15;;;;;;;5.18;1.50;;;12.40;99.90;;;;;;5054551;28;20044;-73
2021/10/01 02:10:42;;;;;;;5.03;1.50;;;12.30;99.90;;;;;;5038489;28;20040;-73
2021/10/01 02:13:09;;;;;;;5.45;1.63;;;12.40;99.90;;;;;;5038717;28;20082;-73
2021/10/01 02:15:35;;;;;;;5.00;1.70;;;12.30;99.90;;;;;;5054572;28;20561;-73
2021/10/01 02:18:03;;;;;;;5.05;1.65;;;12.30;99.90;;;;;;5054745;28;20088;-73
2021/10/01 02:20:32;;;;;;;4.57;1.40;;;12.30;99.90;;;;;;5072652;28;20040;-73
2021/10/01 02:22:58;;;;;;;7.72;1.52;;;12.30;99.90;;;;;;5054459;28;20086;-73
2021/10/01 02:28:13;;;;;;;6.00;1.40;;;12.20;99.90;;;;;;5053464;28;20045;-73
2021/10/01 02:30:40;;;;;;;7.88;1.70;;;12.20;99.90;;;;;;5051943;28;20095;-74
2021/10/01 02:33:19;;;;;;;3.67;1.70;;;12.20;99.90;;;;;;5034876;28;20032;-74
2021/10/01 02:35:45;;;;;;;3.45;1.23;;;12.10;99.90;;;;;;5051780;28;20041;-74
2021/10/01 02:38:10;;;;;;;5.50;1.70;;;12.10;99.90;;;;;;5037377;28;20036;-73
2021/10/01 02:40:36;;;;;;;5.18;1.58;;;12.10;99.90;;;;;;5073241;28;20037;-73
2021/10/01 02:43:01;;;;;;;5.15;1.70;;;12.10;99.90;;;;;;5053355;28;20111;-74
2021/10/01 02:45:27;;;;;;;5.30;1.83;;;12.20;99.90;;;;;;5053058;28;20051;-73
2021/10/01 02:47:52;;;;;;;4.28;1.70;;;12.20;99.90;;;;;;5053773;28;20517;-73
2021/10/01 02:50:20;;;;;;;4.40;1.45;;;12.20;99.90;;;;;;5036982;28;20367;-74
2021/10/01 02:53:08;;;;;;;6.13;1.30;;;12.20;99.90;;;;;;5036523;28;20098;-73
2021/10/01 02:55:34;;;;;;;4.65;1.17;;;12.20;99.90;;;;;;5037728;28;20051;-73
2021/10/01 02:58:24;;;;;;;6.85;1.63;;;12.20;99.90;;;;;;5054070;28;20044;-73
2021/10/01 03:00:50;;;;;;;4.00;1.20;;;12.20;99.90;;;;;;5036120;28;20037;-74
2021/10/01 03:03:21;;;;;;;6.78;1.75;;;12.20;99.90;;;;;;5054137;28;20040;-73
2021/10/01 03:05:49;;;;;;;3.80;1.30;;;12.20;99.90;;;;;;5053019;28;20053;-73
2021/10/01 03:08:17;;;;;;;2.88;1.30;;;12.20;99.90;;;;;;5053001;28;20520;-73
2021/10/01 03:10:44;;;;;;;7.05;1.77;;;12.20;99.90;;;;;;5053382;28;20150;-73
2021/10/01 03:13:11;;;;;;;3.70;1.27;;;12.20;99.90;;;;;;5054099;28;20048;-73
2021/10/01 03:15:37;;;;;;;4.88;1.60;;;12.20;99.90;;;;;;5053594;28;20059;-73
2021/10/01 03:18:03;;;;;;;4.22;1.35;;;12.20;99.90;;;;;;5054296;28;20549;-74
2021/10/01 03:20:29;;;;;;;3.55;1.23;;;12.30;99.90;;;;;;5053306;28;20417;-74
2021/10/01 03:22:55;;;;;;;4.90;1.50;;;12.30;99.90;;;;;;5053788;28;20397;-73
2021/10/01 03:25:21;;;;;;;3.78;1.00;;;12.20;99.90;;;;;;5052718;28;20041;-73
2021/10/01 03:27:47;;;;;;;4.57;1.30;;;12.20;99.90;;;;;;5052649;28;20470;-74
2021/10/01 03:30:13;;;;;;;3.75;1.55;;;12.20;99.90;;;;;;5053635;28;20067;-73
2021/10/01 03:32:39;;;;;;;8.45;1.80;;;12.30;99.90;;;;;;5051861;28;20474;-73
2021/10/01 03:35:06;;;;;;;5.43;1.20;;;12.20;99.90;;;;;;5053867;28;20048;-73
2021/10/01 03:37:32;;;;;;;3.42;1.60;;;12.30;99.90;;;;;;5052482;28;20050;-73
2021/10/01 03:40:00;;;;;;;4.45;1.42;;;12.30;99.90;;;;;;5052629;28;20390;-72
2021/10/01 03:42:25;;;;;;;3.90;1.67;;;12.30;99.90;;;;;;5036419;28;20040;-74
2021/10/01 03:44:51;;;;;;;5.55;1.33;;;12.30;99.90;;;;;;5053683;28;20044;-73
2021/10/01 03:47:17;;;;;;;4.10;1.33;;;12.30;99.90;;;;;;5052681;28;20039;-73
2021/10/01 03:49:43;;;;;;;6.05;1.65;;;12.30;99.90;;;;;;5050890;28;20082;-73
2021/10/01 03:52:10;;;;;;;6.85;1.35;;;12.30;99.90;;;;;;5052707;28;20083;-73
2021/10/01 03:54:37;;;;;;;4.00;1.60;;;12.20;99.90;;;;;;5053439;28;20044;-72
2021/10/01 03:57:03;;;;;;;5.00;1.40;;;12.20;99.90;;;;;;5052873;28;20049;-73
2021/10/01 03:59:29;;;;;;;4.03;1.45;;;12.20;99.90;;;;;;5052510;28;20048;-72
2021/10/01 04:01:54;;;;;;;4.97;1.77;;;12.20;99.90;;;;;;5052219;28;20054;-72
2021/10/01 04:04:20;;;;;;;4.05;1.50;;;12.20;99.90;;;;;;5036601;28;20044;-73
2021/10/01 04:06:46;;;;;;;4.75;1.35;;;12.20;99.90;;;;;;5061866;23;20048;-71
2021/10/01 04:09:11;;;;;;;7.25;1.50;;;12.20;99.90;;;;;;5052597;28;20143;-70
2021/10/01 04:11:38;;;;;;;6.78;1.30;;;12.20;99.90;;;;;;5069322;28;20436;-70
2021/10/01 04:14:04;;;;;;;3.15;1.25;;;12.20;99.90;;;;;;5069086;28;20098;-71
2021/10/01 04:16:30;;;;;;;5.60;1.60;;;12.10;99.90;;;;;;5053202;28;20041;-71
2021/10/01 04:18:55;;;;;;;5.03;1.52;;;12.10;99.90;;;;;;5069218;28;20319;-71
2021/10/01 04:21:21;;;;;;;8.45;1.58;;;12.10;99.90;;;;;;5067384;28;20047;-70
2021/10/01 04:23:46;;;;;;;5.15;1.48;;;12.20;99.90;;;;;;5068963;28;20045;-70
2021/10/01 04:26:13;;;;;;;3.28;1.25;;;12.10;99.90;;;;;;5069769;28;20044;-70
2021/10/01 04:28:39;;;;;;;3.72;1.25;;;12.10;99.90;;;;;;5068883;28;21225;-70
2021/10/01 04:31:04;;;;;;;5.43;1.55;;;12.10;99.90;;;;;;5068631;28;20078;-70
2021/10/01 04:33:34;;;;;;;2.58;1.20;;;12.10;99.90;;;;;;5067633;28;20048;-71
2021/10/01 04:36:00;;;;;;;5.63;1.48;;;12.10;99.90;;;;;;5069642;28;20052;-70
2021/10/01 04:38:26;;;;;;;4.35;1.33;;;12.10;99.90;;;;;;5067978;28;20052;-70
2021/10/01 04:40:52;;;;;;;4.45;1.77;;;12.00;99.90;;;;;;5069345;28;20371;-70
2021/10/01 04:43:18;;;;;;;4.00;1.48;;;12.00;99.90;;;;;;5069090;28;20115;-70
2021/10/01 04:45:44;;;;;;;5.63;1.45;;;11.90;99.90;;;;;;5052506;28;20103;-70
2021/10/01 04:48:10;;;;;;;4.88;1.52;;;11.90;99.90;;;;;;5069041;28;20485;-70
2021/10/01 04:50:36;;;;;;;4.45;1.48;;;11.90;99.90;;;;;;5034607;28;20033;-70
2021/10/01 04:53:02;;;;;;;2.90;1.40;;;11.80;99.90;;;;;;5032654;28;20041;-70
2021/10/01 04:55:28;;;;;;;5.05;1.10;;;11.80;99.90;;;;;;5055918;28;20051;-70
2021/10/01 04:57:54;;;;;;;3.90;1.17;;;11.70;99.90;;;;;;5068686;28;20052;-70
2021/10/01 05:00:20;;;;;;;2.83;1.13;;;11.70;99.90;;;;;;5068524;28;20422;-70
2021/10/01 05:02:46;;;;;;;3.88;1.48;;;11.60;99.90;;;;;;5069455;28;20048;-70
2021/10/01 05:05:11;;;;;;;6.72;1.52;;;11.50;99.90;;;;;;5067043;28;20386;-70
2021/10/01 05:07:37;;;;;;;4.55;1.30;;;11.50;99.90;;;;;;5067745;28;20053;-70
2021/10/01 05:10:06;;;;;;;5.22;1.27;;;11.40;99.90;;;;;;5068064;28;20090;-70
2021/10/01 05:12:32;;;;;;;4.18;1.38;;;11.40;99.90;;;;;;5068536;28;20044;-70
2021/10/01 05:14:58;;;;;;;4.93;1.20;;;11.40;99.90;;;;;;5068609;28;20071;-70
2021/10/01 05:17:23;;;;;;;3.67;1.15;;;11.30;99.90;;;;;;5068818;28;20041;-70
2021/10/01 05:19:49;;;;;;;7.85;1.75;;;11.30;99.90;;;;;;5068068;28;20105;-71
2021/10/01 05:22:16;;;;;;;4.22;1.20;;;11.20;99.90;;;;;;5065142;28;20047;-70
2021/10/01 05:24:42;;;;;;;4.35;1.33;;;11.10;99.90;;;;;;5069000;28;20044;-70
2021/10/01 05:27:08;;;;;;;3.00;1.10;;;11.10;99.90;;;;;;5065289;28;20036;-70
2021/10/01 05:29:34;;;;;;;3.92;1.30;;;11.10;99.90;;;;;;5068901;28;20044;-70
2021/10/01 05:32:00;;;;;;;4.88;1.20;;;11.10;99.90;;;;;;5068343;28;20083;-70
2021/10/01 05:34:26;;;;;;;4.68;1.20;;;11.10;99.90;;;;;;5068941;28;20076;-71
2021/10/01 05:36:52;;;;;;;4.43;1.25;;;11.00;99.90;;;;;;5067708;28;20093;-70
2021/10/01 05:39:18;;;;;;;6.63;1.63;;;11.00;99.90;;;;;;5068837;28;20044;-70
2021/10/01 05:41:43;;;;;;;4.50;1.50;;;11.00;99.90;;;;;;5045932;28;20128;-70
2021/10/01 05:44:09;;;;;;;4.95;1.50;;;11.00;99.90;;;;;;5050449;28;20044;-70
2021/10/01 05:46:39;;;;;;;4.68;1.40;;;11.10;99.90;;;;;;5066965;28;20256;-70
2021/10/01 05:49:05;;;;;;;4.85;1.55;;;11.00;99.90;;;;;;5068423;28;20070;-71
2021/10/01 05:51:31;;;;;;;9.35;1.50;;;11.00;99.90;;;;;;5060996;28;20087;-70
2021/10/01 05:56:32;;;;;;;4.93;1.20;;;11.10;99.90;;;;;;5061962;28;20040;-70
2021/10/01 05:58:58;;;;;;;5.00;1.33;;;11.20;99.90;;;;;;5068680;28;20087;-70
2021/10/01 06:01:23;;;;;;;4.25;1.40;;;11.20;99.90;;;;;;5064097;28;20048;-70
2021/10/01 06:03:51;;;;;;;4.38;1.30;;;11.20;99.90;;;;;;5067429;28;20072;-70
2021/10/01 06:06:17;;;;;;;4.18;1.15;;;11.30;99.90;;;;;;5067134;28;20068;-70
2021/10/01 06:08:43;;;;;;;3.22;1.60;;;11.20;99.90;;;;;;5068947;28;20390;-70
2021/10/01 06:11:08;;;;;;;3.33;1.33;;;11.30;99.90;;;;;;5063983;28;20044;-70
2021/10/01 06:13:36;;;;;;;2.88;0.98;;;11.30;99.90;;;;;;5045097;28;20043;-70
2021/10/01 06:16:02;;;;;;;5.95;1.63;;;11.40;99.90;;;;;;5068106;28;20086;-70
2021/10/01 06:18:27;;;;;;;4.68;1.50;;;11.50;99.90;;;;;;5070225;28;20044;-70
2021/10/01 06:20:53;;;;;;;4.05;1.40;;;11.50;99.90;;;;;;5072385;28;20048;-70
2021/10/01 06:23:22;;;;;;;3.97;1.23;;;11.60;99.90;;;;;;5060816;28;20037;-71
2021/10/01 06:25:47;;;;;;;3.63;1.13;;;11.70;99.90;;;;;;5035335;28;20110;-70
2021/10/01 06:28:13;;;;;;;6.30;1.60;;;11.80;99.90;;;;;;5056792;28;20507;-69
2021/10/01 06:30:39;;;;;;;5.28;1.55;;;11.80;99.90;;;;;;5063577;28;20542;-69
2021/10/01 06:33:05;;;;;;;5.30;1.30;;;11.90;99.90;;;;;;5055598;28;20032;-69
2021/10/01 06:35:31;;;;;;;8.05;1.42;;;12.00;99.90;;;;;;5059023;28;20390;-70
2021/10/01 06:37:56;;;;;;;7.88;1.13;;;12.10;99.90;;;;;;5054710;28;20040;-69
2021/10/01 06:40:22;;;;;;;4.15;1.42;;;12.20;99.90;;;;;;5069441;28;20036;-70
2021/10/01 06:42:50;;;;;;;14.85;2.35;;;12.30;99.90;;;;;;5055005;28;20409;-70
2021/10/01 06:45:27;;;;;;;5.28;1.25;;;12.40;99.90;;;;;;5062747;28;20048;-69
2021/10/01 08:20:17;;;;;;;5.25;1.25;;;14.60;99.90;;;;;;5069182;28;20431;-74
2021/10/01 08:22:43;;;;;;;4.43;1.05;;;14.70;99.90;;;;;;5069514;28;20493;-73
2021/10/01 08:25:09;;;;;;;3.20;1.10;;;14.80;99.90;;;;;;5069510;28;20040;-74
2021/10/01 08:27:35;;;;;;;4.28;1.13;;;14.90;99.90;;;;;;5068608;28;20097;-74
2021/10/01 08:30:05;;;;;;;4.50;1.00;;;15.00;99.90;;;;;;5068454;28;20039;-74
2021/10/01 08:32:31;;;;;;;5.57;1.60;;;15.00;99.90;;;;;;5060791;28;20048;-74
2021/10/01 08:34:57;;;;;;;3.92;1.10;;;15.00;99.90;;;;;;5068972;28;20082;-74
2021/10/01 08:37:22;;;;;;;5.60;1.35;;;15.10;99.90;;;;;;5071081;28;20048;-74
2021/10/01 08:39:48;;;;;;;4.68;1.20;;;15.10;99.90;;;;;;5062495;28;20381;-75
2021/10/01 08:42:13;;;;;;;2.13;1.17;;;15.20;99.90;;;;;;5055007;28;20394;-74
2021/10/01 08:44:39;;;;;;;3.22;0.98;;;15.20;99.90;;;;;;5063466;28;20033;-74
2021/10/01 08:47:07;;;;;;;4.30;1.40;;;15.20;99.90;;;;;;5069549;28;20052;-74
2021/10/01 08:49:33;;;;;;;5.97;1.23;;;15.20;99.90;;;;;;5068953;28;20089;-74
2021/10/01 08:51:59;;;;;;;4.47;1.50;;;15.20;99.90;;;;;;5067969;28;20109;-74
2021/10/01 08:54:25;;;;;;;4.13;1.08;;;15.20;99.90;;;;;;5069448;28;20048;-74
2021/10/01 08:56:52;;;;;;;3.35;1.20;;;15.30;99.90;;;;;;5067317;28;20032;-74
2021/10/01 08:59:18;;;;;;;5.15;1.25;;;15.20;99.90;;;;;;5056612;28;20364;-74
2021/10/01 09:01:43;;;;;;;3.17;1.13;;;15.10;99.90;;;;;;5061418;28;20040;-74
2021/10/01 09:04:12;;;;;;;4.13;1.10;;;15.20;99.90;;;;;;5067484;28;20041;-74
2021/10/01 09:06:38;;;;;;;4.20;1.20;;;15.20;99.90;;;;;;5062452;28;20171;-74
2021/10/01 09:09:05;;;;;;;5.28;1.60;;;15.20;99.90;;;;;;5044796;28;20651;-74
2021/10/01 09:11:33;;;;;;;3.33;1.00;;;15.20;99.90;;;;;;5068198;28;20052;-74
2021/10/01 09:14:07;;;;;;;3.05;0.95;;;15.30;99.90;;;;;;5052233;28;20041;-74
2021/10/01 09:16:34;;;;;;;4.65;1.23;;;15.30;99.90;;;;;;5042078;28;20127;-75
2021/10/01 09:19:00;;;;;;;3.47;1.00;;;15.30;99.90;;;;;;5049932;28;20435;-74
2021/10/01 09:21:26;;;;;;;5.57;1.00;;;15.40;99.90;;;;;;5068940;28;20055;-74
2021/10/01 09:24:03;;;;;;;2.90;1.35;;;15.50;99.90;;;;;;5060267;28;20036;-74
2021/10/01 09:26:30;;;;;;;2.75;1.00;;;15.50;99.90;;;;;;5054964;28;20048;-75
2021/10/01 09:29:01;;;;;;;3.42;0.95;;;15.50;99.90;;;;;;5068955;28;20055;-75
2021/10/01 09:31:36;;;;;;;4.35;1.75;;;15.60;99.90;;;;;;5067990;28;20380;-75
2021/10/01 09:34:04;;;;;;;3.72;1.23;;;15.70;99.90;;;;;;5057282;28;20521;-75
2021/10/01 09:36:30;;;;;;;4.60;0.93;;;15.80;99.90;;;;;;5068572;28;20083;-75
2021/10/01 09:38:56;;;;;;;4.45;1.00;;;15.80;99.90;;;;;;5068951;28;20493;-75
2021/10/01 09:41:29;;;;;;;2.60;0.90;;;15.90;99.90;;;;;;5068675;28;20036;-76
2021/10/01 09:44:10;;;;;;;5.82;1.30;;;15.90;99.90;;;;;;5068638;28;20040;-75
2021/10/01 09:46:38;;;;;;;5.00;1.20;;;15.90;99.90;;;;;;5070364;28;20044;-75
2021/10/01 09:49:05;;;;;;;5.57;1.27;;;15.90;99.90;;;;;;5072667;28;20047;-75
2021/10/01 09:51:31;;;;;;;4.50;1.20;;;16.00;99.90;;;;;;5070907;28;20249;-75
2021/10/01 09:53:57;;;;;;;4.47;1.20;;;16.00;99.90;;;;;;5068449;28;20093;-75
2021/10/01 09:56:27;;;;;;;4.88;1.20;;;16.10;99.90;;;;;;5058833;28;20044;-75
2021/10/01 09:59:06;;;;;;;2.78;0.90;;;16.10;99.90;;;;;;5035973;28;20092;-75
2021/10/01 10:01:32;;;;;;;5.00;1.40;;;16.20;99.90;;;;;;5066953;28;20036;-75
2021/10/01 10:03:57;;;;;;;1.80;0.90;;;16.30;99.90;;;;;;5072413;28;20380;-75
2021/10/01 10:06:23;;;;;;;3.22;0.93;;;16.30;99.90;;;;;;5070728;28;20055;-75
2021/10/01 10:08:49;;;;;;;2.60;1.08;;;16.40;99.90;;;;;;5070461;28;20462;-75
2021/10/01 10:11:23;;;;;;;2.22;0.95;;;16.40;99.90;;;;;;5072340;28;20036;-75
2021/10/01 10:13:51;;;;;;;5.82;1.23;;;16.60;99.90;;;;;;5072267;28;20498;-75
2021/10/01 10:16:24;;;;;;;3.85;1.33;;;16.70;99.90;;;;;;5071910;28;20040;-76
2021/10/01 10:18:57;;;;;;;4.43;1.30;;;16.60;99.90;;;;;;5071977;28;20048;-76
2021/10/01 10:21:23;;;;;;;3.00;1.15;;;16.80;99.90;;;;;;5071911;28;20052;-75
2021/10/01 10:23:49;;;;;;;2.67;1.10;;;16.80;99.90;;;;;;5055253;28;20132;-76
2021/10/01 10:26:14;;;;;;;4.10;1.00;;;16.70;99.90;;;;;;5070704;28;20173;-76
2021/10/01 10:28:42;;;;;;;5.20;1.35;;;16.80;99.90;;;;;;5072027;28;20045;-76
2021/10/01 10:31:09;;;;;;;3.75;1.83;;;16.90;99.90;;;;;;5055004;28;20059;-76
2021/10/01 10:33:43;;;;;;;5.00;1.50;;;17.00;99.90;;;;;;5053859;28;20047;-76
2021/10/01 10:36:41;;;;;;;3.35;1.05;;;17.00;99.90;;;;;;5071532;28;20049;-76
2021/10/01 10:39:12;;;;;;;4.43;1.17;;;17.00;99.90;;;;;;5071777;28;20037;-76
2021/10/01 10:41:46;;;;;;;4.00;1.10;;;17.00;99.90;;;;;;5071644;28;20076;-76
2021/10/01 10:44:13;;;;;;;3.60;1.45;;;16.90;99.90;;;;;;5071582;28;20135;-76
2021/10/01 10:46:44;;;;;;;5.70;1.45;;;16.90;99.90;;;;;;5071572;28;20052;-76
2021/10/01 10:49:22;;;;;;;6.78;1.40;;;16.80;99.90;;;;;;5051573;28;20056;-76
2021/10/01 10:52:04;;;;;;;4.68;1.30;;;16.70;99.90;;;;;;5064083;28;20050;-75
2021/10/01 10:54:33;;;;;;;4.32;1.00;;;16.70;99.90;;;;;;5071464;28;20402;-76
2021/10/01 10:57:17;;;;;;;2.70;1.25;;;16.70;99.90;;;;;;5054572;28;20412;-75
2021/10/01 10:59:54;;;;;;;2.95;1.00;;;16.70;99.90;;;;;;5071289;28;20143;-76
2021/10/01 11:02:29;;;;;;;3.40;1.00;;;16.60;99.90;;;;;;5071300;28;20697;-76
2021/10/01 11:05:22;;;;;;;4.55;1.02;;;16.60;99.90;;;;;;5071357;28;20052;-75
2021/10/01 11:07:56;;;;;;;3.28;1.13;;;16.70;99.90;;;;;;5068979;28;20063;-75
2021/10/01 11:10:42;;;;;;;2.55;1.10;;;16.80;99.90;;;;;;5087703;28;20044;-76
2021/10/01 11:13:24;;;;;;;4.00;1.00;;;17.00;99.90;;;;;;5054585;28;20579;-75
2021/10/01 11:16:08;;;;;;;4.40;1.35;;;17.20;99.90;;;;;;5072321;28;20044;-76
2021/10/01 11:18:43;;;;;;;2.55;1.27;;;17.40;99.90;;;;;;5070848;28;20139;-75
2021/10/01 11:21:27;;;;;;;4.15;1.10;;;17.60;99.90;;;;;;5069739;28;20044;-75
2021/10/01 11:24:07;;;;;;;6.07;1.30;;;17.70;99.90;;;;;;5070809;28;20048;-75
2021/10/01 11:26:45;;;;;;;6.72;1.83;;;17.70;99.90;;;;;;5070665;28;20036;-76
2021/10/01 11:29:26;;;;;;;2.45;1.00;;;17.70;99.90;;;;;;5071012;28;20069;-76
2021/10/01 11:31:54;;;;;;;4.68;1.35;;;17.70;99.90;;;;;;5070957;28;20090;-75
2021/10/01 11:34:41;;;;;;;10.57;1.60;;;17.60;99.90;;;;;;5069263;28;20047;-75
2021/10/01 11:37:33;;;;;;;6.13;1.42;;;17.60;99.90;;;;;;5052936;28;20052;-75
2021/10/01 11:40:24;;;;;;;4.30;1.40;;;17.60;99.90;;;;;;5070897;28;20368;-75
2021/10/01 11:42:52;;;;;;;4.63;1.17;;;17.50;99.90;;;;;;5070581;28;20447;-74
2021/10/01 11:45:27;;;;;;;4.43;1.15;;;17.40;99.90;;;;;;5056461;28;20041;-73
2021/10/01 11:48:10;;;;;;;6.13;1.27;;;17.30;99.90;;;;;;5064341;28;20124;-73
2021/10/01 11:50:38;;;;;;;3.95;1.60;;;17.30;99.90;;;;;;5065091;28;20074;-74
2021/10/01 11:53:22;;;;;;;3.70;1.23;;;17.30;99.90;;;;;;5066028;28;20133;-74
2021/10/01 11:55:53;;;;;;;6.03;1.33;;;17.20;99.90;;;;;;5056729;28;20490;-74
2021/10/01 11:58:20;;;;;;;4.03;1.20;;;17.20;99.90;;;;;;5051406;28;20039;-75
2021/10/01 12:00:45;;;;;;;7.05;1.90;;;17.30;99.90;;;;;;5064785;28;20040;-74
2021/10/01 12:03:16;;;;;;;3.45;1.48;;;17.30;99.90;;;;;;5037119;28;20041;-74
2021/10/01 12:05:48;;;;;;;4.97;1.58;;;17.30;99.90;;;;;;5061604;28;20045;-74
2021/10/01 12:08:15;;;;;;;6.57;1.38;;;17.30;99.90;;;;;;5061367;28;20067;-75
2021/10/01 12:10:48;;;;;;;2.03;1.10;;;17.00;99.90;;;;;;5064635;28;20482;-74
2021/10/01 12:13:24;;;;;;;4.72;1.40;;;17.00;99.90;;;;;;5051384;28;20039;-74
2021/10/01 12:16:00;;;;;;;4.22;1.40;;;17.00;99.90;;;;;;5067156;28;20044;-74
2021/10/01 12:18:44;;;;;;;4.60;1.40;;;16.80;99.90;;;;;;5058945;28;20052;-74
2021/10/01 12:21:17;;;;;;;5.35;1.70;;;16.50;99.90;;;;;;5042745;28;20045;-74
2021/10/01 12:23:46;;;;;;;6.47;1.95;;;16.30;99.90;;;;;;5060361;28;20474;-74
2021/10/01 12:26:25;;;;;;;4.93;1.48;;;16.00;99.90;;;;;;5049573;28;20050;-74
2021/10/01 12:29:03;;;;;;;5.32;1.60;;;15.90;99.90;;;;;;5056013;28;20028;-75
2021/10/01 12:31:34;;;;;;;3.15;1.27;;;15.70;99.90;;;;;;5059681;28;20044;-74
2021/10/01 12:34:03;;;;;;;4.43;1.52;;;15.60;99.90;;;;;;5066964;28;20036;-75
2021/10/01 12:36:29;;;;;;;4.00;1.95;;;15.50;99.90;;;;;;5050639;28;20036;-75
2021/10/01 12:38:57;;;;;;;4.53;1.60;;;15.60;99.90;;;;;;5060291;28;20269;-74
2021/10/01 12:41:23;;;;;;;3.42;1.60;;;15.60;99.90;;;;;;5058922;28;20059;-75
2021/10/01 12:44:02;;;;;;;4.93;1.60;;;15.70;99.90;;;;;;5060693;28;20041;-74
2021/10/01 12:46:36;;;;;;;3.25;1.58;;;15.70;99.90;;;;;;5042261;28;20044;-74
2021/10/01 12:49:16;;;;;;;4.25;1.70;;;15.80;99.90;;;;;;5063882;28;20052;-74
2021/10/01 12:51:42;;;;;;;3.53;1.65;;;15.90;99.90;;;;;;5058588;28;20047;-74
2021/10/01 12:54:26;;;;;;;4.45;1.67;;;15.80;99.90;;;;;;5066119;28;20062;-74
2021/10/01 12:57:25;;;;;;;4.65;1.80;;;15.80;99.90;;;;;;5067856;28;20090;-74
2021/10/01 13:00:01;;;;;;;5.70;1.90;;;15.70;99.90;;;;;;5049069;28;20094;-74
2021/10/01 13:02:39;;;;;;;5.00;1.75;;;15.80;99.90;;;;;;5040407;28;20057;-74
2021/10/01 13:05:08;;;;;;;5.70;2.15;;;15.80;99.90;;;;;;5066910;28;20040;-74
2021/10/01 13:07:40;;;;;;;4.50;2.13;;;15.80;99.90;;;;;;5063638;28;20087;-74
2021/10/01 13:10:15;;;;;;;3.65;1.95;;;15.80;99.90;;;;;;5058827;28;20041;-75
2021/10/01 13:13:02;;;;;;;5.60;2.53;;;15.80;99.90;;;;;;5050527;28;20536;-74
2021/10/01 13:15:45;;;;;;;5.28;2.10;;;15.70;99.90;;;;;;5067606;28;20032;-74
2021/10/01 13:18:20;;;;;;;5.38;2.10;;;15.70;99.90;;;;;;5068358;28;20036;-74
2021/10/01 13:21:02;;;;;;;4.80;1.80;;;15.80;99.90;;;;;;5066413;28;20048;-75
2021/10/01 13:23:48;;;;;;;7.78;2.30;;;15.80;99.90;;;;;;5068170;28;20048;-75
2021/10/01 13:26:21;;;;;;;4.78;2.80;;;15.70;99.90;;;;;;5067290;28;20523;-75
2021/10/01 13:28:53;;;;;;;4.88;2.15;;;15.80;99.90;;;;;;5066567;28;20241;-75
2021/10/01 13:31:21;;;;;;;6.28;2.90;;;15.80;99.90;;;;;;5066025;28;20048;-75
2021/10/01 13:33:50;;;;;;;5.68;2.00;;;15.80;99.90;;;;;;5050873;28;20127;-75
2021/10/01 13:36:16;;;;;;;6.22;2.22;;;15.70;99.90;;;;;;5068099;28;20087;-75
2021/10/01 13:38:44;;;;;;;6.25;2.20;;;15.80;99.90;;;;;;5050997;28;20068;-75
2021/10/01 13:41:11;;;;;;;5.60;2.10;;;15.70;99.90;;;;;;5068963;28;20041;-75
2021/10/01 13:43:38;;;;;;;5.32;1.70;;;15.70;99.90;;;;;;5050724;28;20476;-75
2021/10/01 13:46:05;;;;;;;5.30;1.73;;;15.70;99.90;;;;;;5067825;28;20397;-75
2021/10/01 13:48:31;;;;;;;4.38;1.67;;;15.70;99.90;;;;;;5068426;28;20090;-75
2021/10/01 13:50:57;;;;;;;4.30;1.45;;;15.70;99.90;;;;;;5051397;28;20036;-75
2021/10/01 13:53:24;;;;;;;4.03;1.65;;;15.60;99.90;;;;;;5068705;28;20037;-75
2021/10/01 13:55:50;;;;;;;5.63;1.33;;;15.70;99.90;;;;;;5068173;28;20043;-75
2021/10/01 13:58:16;;;;;;;2.92;1.25;;;15.60;99.90;;;;;;5068700;28;20048;-74
2021/10/01 14:00:42;;;;;;;3.70;1.25;;;15.60;99.90;;;;;;5066721;28;20036;-75
2021/10/01 14:03:08;;;;;;;7.22;3.20;;;15.60;99.90;;;;;;5068774;28;20101;-75
2021/10/01 14:05:34;;;;;;;2.20;1.38;;;15.50;99.90;;;;;;5045858;28;20385;-75
2021/10/01 14:07:59;;;;;;;4.68;2.00;;;15.50;99.90;;;;;;5057251;28;20113;-75
2021/10/01 14:10:30;;;;;;;4.20;1.70;;;15.50;99.90;;;;;;5066610;28;20116;-74
2021/10/01 14:12:56;;;;;;;2.92;1.50;;;15.50;99.90;;;;;;5067117;28;20036;-76
2021/10/01 14:15:24;;;;;;;3.05;1.33;;;15.50;99.90;;;;;;5067178;28;20505;-76
2021/10/01 14:17:50;;;;;;;5.28;1.48;;;15.50;99.90;;;;;;5067871;28;20041;-76
2021/10/01 14:20:18;;;;;;;3.53;1.10;;;15.50;99.90;;;;;;5067241;28;20055;-75
2021/10/01 14:22:44;;;;;;;4.07;1.30;;;15.50;99.90;;;;;;5066544;28;20041;-76
2021/10/01 14:25:12;;;;;;;3.13;1.50;;;15.50;99.90;;;;;;5067714;28;20566;-75
2021/10/01 14:27:39;;;;;;;7.78;2.30;;;15.50;99.90;;;;;;5050785;28;20037;-75
2021/10/01 14:30:06;;;;;;;4.65;1.52;;;15.50;99.90;;;;;;5050790;28;20040;-75
2021/10/01 14:32:32;;;;;;;4.05;1.58;;;15.50;99.90;;;;;;5052030;28;20098;-76
2021/10/01 14:34:58;;;;;;;4.53;1.55;;;15.50;99.90;;;;;;5050604;28;20090;-72